Time;durP1;ratioP1;P1;durP2;ratioP2;P2;SDS_P1;SDS_P2;PMS_P1;PMS_P2;Temp;Humidity;BMP_temperature;BMP_pressure;BME280_temperature;BME280_humidity;BME280_pressure;Samples;Min_cycle;Max_cycle;Signal;HPM_P1;HPM_P2
2022/05/11 00:00:12;;;;;;;;;;;;;;;19.88;62.50;99196.78;2097842;28;20015;-51
2022/05/11 00:01:15;;;;;;;;;;;;;;;19.88;62.50;99194.09;2094240;28;19944;-50
2022/05/11 00:02:16;;;;;;;;;;;;;;;19.89;62.55;99193.88;2095155;28;20001;-54
2022/05/11 00:03:17;;;;;;;;;;;;;;;19.88;61.99;99186.84;2095045;28;20332;-47
2022/05/11 00:04:18;;;;;;;;;;;;;;;19.87;62.34;99190.56;2099656;28;20015;-53
2022/05/11 00:05:20;;;;;;;;;;;;;;;19.86;62.60;99189.75;2090134;28;19924;-55
2022/05/11 00:06:21;;;;;;;;;;;;;;;19.85;62.52;99193.47;2090862;28;19976;-50
2022/05/11 00:07:22;;;;;;;;;;;;;;;19.88;62.42;99196.78;2092787;28;19986;-53
2022/05/11 00:08:23;;;;;;;;;;;;;;;19.88;62.46;99192.22;2092844;28;20379;-55
2022/05/11 00:09:24;;;;;;;;;;;;;;;19.89;62.40;99198.44;2094321;28;19939;-47
2022/05/11 00:10:25;;;;;;;;;;;;;;;19.87;62.48;99193.28;2092586;28;20023;-51
2022/05/11 00:11:28;;;;;;;;;;;;;;;19.87;62.29;99195.97;2090823;28;19943;-51
2022/05/11 00:12:28;;;;;;;;;;;;;;;19.86;62.28;99199.66;2093731;28;19932;-51
2022/05/11 00:13:30;;;;;;;;;;;;;;;19.87;62.39;99190.56;2097337;28;19967;-50
2022/05/11 00:14:32;;;;;;;;;;;;;;;19.86;62.26;99195.13;2097466;28;20610;-51
2022/05/11 00:15:34;;;;;;;;;;;;;;;19.88;62.29;99194.09;2099578;28;20702;-51
2022/05/11 00:16:35;;;;;;;;;;;;;;;19.86;62.51;99194.28;2095212;28;19928;-55
2022/05/11 00:17:36;;;;;;;;;;;;;;;19.85;62.42;99187.25;2094267;28;19963;-55
2022/05/11 00:18:37;;;;;;;;;;;;;;;19.85;62.44;99190.75;2093390;28;19927;-52
2022/05/11 00:19:38;;;;;;;;;;;;;;;19.85;62.27;99193.47;2097772;28;20817;-51
2022/05/11 00:20:39;;;;;;;;;;;;;;;19.87;62.56;99195.97;2094193;28;19959;-55
2022/05/11 00:21:40;;;;;;;;;;;;;;;19.85;62.41;99192.63;2098733;28;19928;-51
2022/05/11 00:22:41;;;;;;;;;;;;;;;19.86;62.50;99191.59;2094559;28;19924;-54
2022/05/11 00:23:43;;;;;;;;;;;;;;;19.84;62.46;99191.81;2095730;28;19978;-55
2022/05/11 00:24:43;;;;;;;;;;;;;;;19.85;62.27;99198.00;2095173;28;19932;-55
2022/05/11 00:25:45;;;;;;;;;;;;;;;19.84;62.25;99189.13;2091346;28;19938;-53
2022/05/11 00:26:46;;;;;;;;;;;;;;;19.85;62.07;99204.22;2093314;28;19943;-50
2022/05/11 00:27:47;;;;;;;;;;;;;;;19.86;62.38;99189.75;2096295;28;19932;-55
2022/05/11 00:28:49;;;;;;;;;;;;;;;19.86;62.34;99192.44;2091616;28;19971;-51
2022/05/11 00:29:51;;;;;;;;;;;;;;;19.86;62.09;99194.28;2091830;28;19932;-52
2022/05/11 00:30:53;;;;;;;;;;;;;;;19.85;62.37;99198.84;2089098;28;20040;-51
2022/05/11 00:31:54;;;;;;;;;;;;;;;19.86;62.38;99192.44;2092043;28;21329;-49
2022/05/11 00:32:57;;;;;;;;;;;;;;;19.85;62.44;99193.47;2091534;28;19928;-49
2022/05/11 00:33:59;;;;;;;;;;;;;;;19.86;62.10;99189.75;2090703;28;21215;-49
2022/05/11 00:35:01;;;;;;;;;;;;;;;19.85;62.48;99188.06;2089160;28;19932;-49
2022/05/11 00:36:01;;;;;;;;;;;;;;;19.86;62.43;99189.75;2100724;28;19935;-50
2022/05/11 00:37:03;;;;;;;;;;;;;;;19.84;62.34;99191.81;2094511;28;20306;-52
2022/05/11 00:38:04;;;;;;;;;;;;;;;19.84;62.53;99186.41;2100199;28;19931;-51
2022/05/11 00:39:05;;;;;;;;;;;;;;;19.85;62.06;99187.25;2097705;28;19928;-51
2022/05/11 00:40:06;;;;;;;;;;;;;;;19.84;62.18;99186.41;2099054;28;20027;-49
2022/05/11 00:41:08;;;;;;;;;;;;;;;19.86;62.14;99191.59;2096419;28;19931;-46
2022/05/11 00:42:09;;;;;;;;;;;;;;;19.85;62.17;99188.06;2096968;28;19935;-49
2022/05/11 00:43:10;;;;;;;;;;;;;;;19.84;62.46;99186.41;2096460;28;20014;-48
2022/05/11 00:44:12;;;;;;;;;;;;;;;19.86;62.27;99187.06;2096147;28;21515;-49
2022/05/11 00:45:15;;;;;;;;;;;;;;;19.84;62.37;99186.41;2095376;28;19924;-48
2022/05/11 00:46:19;;;;;;;;;;;;;;;19.85;61.95;99189.94;2096342;28;19932;-48
2022/05/11 00:47:23;;;;;;;;;;;;;;;19.86;62.30;99192.44;2097990;28;20667;-46
2022/05/11 00:49:48;;;;;;;;;;;;;;;19.86;62.18;99191.59;2094877;28;19936;-49
2022/05/11 00:50:49;;;;;;;;;;;;;;;19.85;61.90;99181.88;2089986;28;19940;-50
2022/05/11 00:51:52;;;;;;;;;;;;;;;19.84;62.30;99189.13;2089981;28;19948;-47
2022/05/11 00:52:56;;;;;;;;;;;;;;;19.84;62.39;99186.41;2093087;28;19981;-48
2022/05/11 00:53:56;;;;;;;;;;;;;;;19.82;62.04;99180.41;2092597;28;19928;-50
2022/05/11 00:55:00;;;;;;;;;;;;;;;19.85;62.44;99179.16;2092349;28;19924;-46
2022/05/11 00:56:01;;;;;;;;;;;;;;;19.86;62.36;99184.38;2094659;28;19935;-50
2022/05/11 00:57:06;;;;;;;;;;;;;;;19.85;62.18;99181.88;2090572;28;19932;-46
2022/05/11 00:58:10;;;;;;;;;;;;;;;19.84;62.22;99186.41;2097573;28;19924;-47
2022/05/11 00:59:14;;;;;;;;;;;;;;;19.86;62.16;99187.06;2091853;28;19963;-46
2022/05/11 01:00:17;;;;;;;;;;;;;;;19.83;62.43;99182.03;2092745;28;19932;-48
2022/05/11 01:01:19;;;;;;;;;;;;;;;19.84;62.12;99186.41;2095504;28;19928;-47
2022/05/11 01:02:21;;;;;;;;;;;;;;;19.85;61.93;99184.56;2091156;28;20866;-50
2022/05/11 01:03:25;;;;;;;;;;;;;;;19.84;62.17;99181.03;2091167;28;19939;-46
2022/05/11 01:04:25;;;;;;;;;;;;;;;19.83;62.08;99178.53;2091250;28;19931;-47
2022/05/11 01:05:27;;;;;;;;;;;;;;;19.83;61.99;99182.03;2092042;28;19938;-48
2022/05/11 01:06:30;;;;;;;;;;;;;;;19.84;62.21;99181.03;2097261;28;19935;-46
2022/05/11 01:07:32;;;;;;;;;;;;;;;19.84;62.30;99177.53;2096466;28;20397;-46
2022/05/11 01:08:32;;;;;;;;;;;;;;;19.85;62.31;99182.69;2092420;28;19939;-47
2022/05/11 01:09:34;;;;;;;;;;;;;;;19.83;62.07;99179.34;2087471;28;19958;-47
2022/05/11 01:10:34;;;;;;;;;;;;;;;19.83;62.04;99179.34;2090117;28;19924;-46
2022/05/11 01:11:39;;;;;;;;;;;;;;;19.86;61.99;99181.69;2091309;28;20655;-50
2022/05/11 01:12:41;;;;;;;;;;;;;;;19.83;62.30;99179.34;2090902;28;19986;-48
2022/05/11 01:13:43;;;;;;;;;;;;;;;19.84;62.19;99175.66;2088419;28;20327;-46
2022/05/11 01:14:46;;;;;;;;;;;;;;;19.84;62.04;99177.53;2088238;28;19928;-47
2022/05/11 01:15:50;;;;;;;;;;;;;;;19.83;62.05;99168.59;2090586;28;19928;-49
2022/05/11 01:16:51;;;;;;;;;;;;;;;19.82;62.22;99176.88;2087619;28;19929;-47
2022/05/11 01:17:53;;;;;;;;;;;;;;;19.83;61.96;99176.66;2091017;28;19932;-50
2022/05/11 01:18:54;;;;;;;;;;;;;;;19.82;62.24;99175.00;2088798;28;20588;-48
2022/05/11 01:19:56;;;;;;;;;;;;;;;19.82;61.96;99168.81;2089207;28;19932;-48
2022/05/11 01:20:57;;;;;;;;;;;;;;;19.82;62.27;99172.31;2088766;28;20404;-48
2022/05/11 01:22:03;;;;;;;;;;;;;;;19.81;62.19;99173.38;2089876;28;19978;-49
2022/05/11 01:23:07;;;;;;;;;;;;;;;19.83;62.21;99168.59;2092191;28;19964;-46
2022/05/11 01:24:23;;;;;;;;;;;;;;;19.82;62.14;99172.31;2093250;28;19950;-46
2022/05/11 01:25:24;;;;;;;;;;;;;;;19.83;62.21;99173.16;2090893;28;19928;-48
2022/05/11 01:26:26;;;;;;;;;;;;;;;19.84;62.01;99170.28;2092423;28;19932;-48
2022/05/11 01:27:29;;;;;;;;;;;;;;;19.84;62.09;99172.97;2088413;28;20402;-48
2022/05/11 01:28:31;;;;;;;;;;;;;;;19.82;62.20;99169.63;2091144;28;20023;-49
2022/05/11 01:29:31;;;;;;;;;;;;;;;19.83;62.19;99179.34;2088795;28;19925;-48
2022/05/11 01:30:33;;;;;;;;;;;;;;;19.83;62.01;99181.22;2096070;28;20398;-48
2022/05/11 01:31:33;;;;;;;;;;;;;;;19.83;62.17;99178.53;2095840;28;19933;-47
2022/05/11 01:32:36;;;;;;;;;;;;;;;19.80;62.09;99170.84;2095394;28;20022;-48
2022/05/11 01:33:39;;;;;;;;;;;;;;;19.81;61.96;99176.06;2090758;28;19967;-48
2022/05/11 01:34:41;;;;;;;;;;;;;;;19.83;62.10;99176.66;2087947;28;19964;-49
2022/05/11 01:35:46;;;;;;;;;;;;;;;19.84;61.92;99180.22;2090692;28;19932;-48
2022/05/11 01:36:49;;;;;;;;;;;;;;;19.83;62.08;99179.34;2092743;28;19928;-47
2022/05/11 01:37:59;;;;;;;;;;;;;;;19.85;61.93;99182.69;2094779;28;19939;-49
2022/05/11 01:39:02;;;;;;;;;;;;;;;19.83;62.15;99184.75;2092723;28;19932;-49
2022/05/11 01:40:05;;;;;;;;;;;;;;;19.84;61.88;99177.53;2092082;28;19935;-47
2022/05/11 01:41:06;;;;;;;;;;;;;;;19.83;62.01;99178.53;2091716;28;20965;-47
2022/05/11 01:42:08;;;;;;;;;;;;;;;19.85;61.91;99182.69;2096291;28;20030;-48
2022/05/11 01:43:13;;;;;;;;;;;;;;;19.84;61.95;99182.91;2091449;28;20378;-51
2022/05/11 01:44:16;;;;;;;;;;;;;;;19.85;61.67;99184.56;2088273;28;20859;-50
2022/05/11 01:45:16;;;;;;;;;;;;;;;19.83;62.00;99176.66;2092247;28;20577;-49
2022/05/11 01:46:18;;;;;;;;;;;;;;;19.83;61.96;99179.34;2096838;28;19938;-47
2022/05/11 01:47:19;;;;;;;;;;;;;;;19.83;62.04;99176.66;2097646;28;19928;-47
2022/05/11 01:48:21;;;;;;;;;;;;;;;19.83;61.67;99181.22;2098532;28;19930;-47
2022/05/11 01:49:22;;;;;;;;;;;;;;;19.82;62.07;99180.41;2093401;28;19997;-50
2022/05/11 01:50:25;;;;;;;;;;;;;;;19.82;62.02;99182.25;2089717;28;19947;-52
2022/05/11 01:51:26;;;;;;;;;;;;;;;19.83;61.90;99187.44;2088558;28;19939;-55
2022/05/11 01:52:27;;;;;;;;;;;;;;;19.81;61.82;99184.13;2090504;28;19928;-55
2022/05/11 01:53:29;;;;;;;;;;;;;;;19.81;61.89;99184.13;2089191;28;20282;-47
2022/05/11 01:54:29;;;;;;;;;;;;;;;19.81;61.97;99181.44;2091889;28;19974;-54
2022/05/11 01:55:32;;;;;;;;;;;;;;;19.81;61.89;99186.00;2094295;28;21858;-49
2022/05/11 01:56:33;;;;;;;;;;;;;;;19.84;61.94;99190.97;2096664;28;20142;-55
2022/05/11 01:57:35;;;;;;;;;;;;;;;19.82;61.85;99183.09;2096050;28;19934;-53
2022/05/11 01:58:36;;;;;;;;;;;;;;;19.81;61.71;99177.91;2092658;28;19977;-55
2022/05/11 01:59:38;;;;;;;;;;;;;;;19.81;61.89;99180.63;2090047;28;19925;-51
2022/05/11 02:00:39;;;;;;;;;;;;;;;19.78;61.70;99187.22;2088395;28;19928;-52
2022/05/11 02:01:41;;;;;;;;;;;;;;;19.77;62.15;99190.09;2091477;28;19928;-52
2022/05/11 02:02:41;;;;;;;;;;;;;;;19.78;61.79;99187.22;2089079;28;21756;-54
2022/05/11 02:03:43;;;;;;;;;;;;;;;19.82;61.99;99182.25;2094336;28;19935;-49
2022/05/11 02:08:57;;;;;;;;;;;;;;;19.78;61.83;99189.91;2052121;28;20652;-51
2022/05/11 02:09:57;;;;;;;;;;;;;;;19.77;61.82;99190.91;2058632;28;20012;-49
2022/05/11 02:11:01;;;;;;;;;;;;;;;19.79;61.84;99188.88;2051696;28;19966;-49
2022/05/11 02:12:01;;;;;;;;;;;;;;;19.79;61.83;99196.94;2054654;28;20575;-50
2022/05/11 02:13:03;;;;;;;;;;;;;;;19.78;61.77;99192.59;2057729;28;20131;-54
2022/05/11 02:14:03;;;;;;;;;;;;;;;19.79;62.02;99188.03;2054843;28;19933;-52
2022/05/11 02:15:05;;;;;;;;;;;;;;;19.78;61.63;99195.28;2083410;28;19958;-52
2022/05/11 02:16:06;;;;;;;;;;;;;;;19.78;62.01;99184.53;2092539;28;19924;-55
2022/05/11 02:17:08;;;;;;;;;;;;;;;19.80;61.90;99195.06;2088730;28;19990;-49
2022/05/11 02:18:09;;;;;;;;;;;;;;;19.77;62.02;99190.91;2092919;28;19928;-52
2022/05/11 02:19:11;;;;;;;;;;;;;;;19.74;61.72;99183.25;2090973;28;20035;-53
2022/05/11 02:20:13;;;;;;;;;;;;;;;19.72;61.82;99193.38;2095093;28;19928;-49
2022/05/11 02:21:15;;;;;;;;;;;;;;;19.74;62.01;99191.31;2090137;28;19963;-52
2022/05/11 02:22:16;;;;;;;;;;;;;;;19.77;62.08;99179.31;2090437;28;20441;-54
2022/05/11 02:23:18;;;;;;;;;;;;;;;19.78;61.60;99192.59;2091147;28;19934;-48
2022/05/11 02:24:18;;;;;;;;;;;;;;;19.74;61.87;99191.31;2094378;28;20554;-47
2022/05/11 02:25:20;;;;;;;;;;;;;;;19.76;61.88;99193.81;2093149;28;19938;-51
2022/05/11 02:26:22;;;;;;;;;;;;;;;19.73;61.85;99192.34;2092647;28;19988;-50
2022/05/11 02:27:24;;;;;;;;;;;;;;;19.75;61.78;99193.00;2092075;28;19931;-51
2022/05/11 02:28:24;;;;;;;;;;;;;;;19.74;61.80;99193.19;2094481;28;19955;-51
2022/05/11 02:29:26;;;;;;;;;;;;;;;19.75;62.13;99197.53;2092028;28;20332;-49
2022/05/11 02:30:27;;;;;;;;;;;;;;;19.75;62.09;99193.00;2093246;28;19932;-49
2022/05/11 02:31:29;;;;;;;;;;;;;;;19.75;62.00;99187.63;2091186;28;20011;-49
2022/05/11 02:32:29;;;;;;;;;;;;;;;19.75;62.00;99187.63;2094139;28;19935;-45
2022/05/11 02:33:31;;;;;;;;;;;;;;;19.76;61.93;99193.81;2092835;28;19928;-48
2022/05/11 02:35:52;;;;;;;;;;;;;;;19.75;61.88;99190.31;2091274;28;19924;-49
2022/05/11 02:36:53;;;;;;;;;;;;;;;19.73;61.90;99195.06;2091333;28;19924;-47
2022/05/11 02:37:56;;;;;;;;;;;;;;;19.74;62.00;99194.00;2092064;28;20535;-50
2022/05/11 02:38:56;;;;;;;;;;;;;;;19.73;61.64;99194.22;2091746;28;19932;-50
2022/05/11 02:39:58;;;;;;;;;;;;;;;19.71;61.90;99197.09;2089004;28;19979;-51
2022/05/11 02:40:59;;;;;;;;;;;;;;;19.72;62.05;99197.91;2092201;28;19932;-47
2022/05/11 02:42:01;;;;;;;;;;;;;;;19.73;61.86;99197.75;2089423;28;19932;-49
2022/05/11 02:43:03;;;;;;;;;;;;;;;19.74;61.87;99195.88;2089948;28;19939;-50
2022/05/11 02:44:04;;;;;;;;;;;;;;;19.72;61.78;99193.38;2095445;28;19925;-47
2022/05/11 02:45:06;;;;;;;;;;;;;;;19.71;62.01;99191.72;2092935;28;20023;-49
2022/05/11 02:46:08;;;;;;;;;;;;;;;19.72;61.95;99187.16;2094012;28;19928;-48
2022/05/11 02:47:08;;;;;;;;;;;;;;;19.71;61.81;99185.50;2089611;28;20020;-49
2022/05/11 02:48:11;;;;;;;;;;;;;;;19.71;61.79;99191.72;2090372;28;20629;-47
2022/05/11 02:49:12;;;;;;;;;;;;;;;19.71;61.59;99189.03;2089062;28;19935;-51
2022/05/11 02:50:15;;;;;;;;;;;;;;;19.70;61.84;99184.69;2091584;28;20917;-59
2022/05/11 02:51:16;;;;;;;;;;;;;;;19.70;62.10;99184.69;2094932;28;19946;-48
2022/05/11 02:52:17;;;;;;;;;;;;;;;19.70;62.02;99186.53;2092456;28;20737;-49
2022/05/11 02:53:19;;;;;;;;;;;;;;;19.71;61.96;99196.28;2091005;28;19928;-48
2022/05/11 02:54:20;;;;;;;;;;;;;;;19.69;61.96;99191.06;2094326;28;20050;-48
2022/05/11 02:55:22;;;;;;;;;;;;;;;19.68;62.11;99186.72;2090794;28;21223;-48
2022/05/11 02:56:24;;;;;;;;;;;;;;;19.70;61.71;99187.38;2092836;28;19928;-47
2022/05/11 02:57:27;;;;;;;;;;;;;;;19.69;61.82;99191.06;2089706;28;19924;-49
2022/05/11 02:58:28;;;;;;;;;;;;;;;19.69;61.91;99187.56;2090590;28;20030;-50
2022/05/11 02:59:30;;;;;;;;;;;;;;;19.68;62.04;99192.13;2094897;28;19932;-48
2022/05/11 03:00:31;;;;;;;;;;;;;;;19.68;62.04;99194.81;2091252;28;20574;-49
2022/05/11 03:01:33;;;;;;;;;;;;;;;19.68;61.95;99189.41;2091154;28;20272;-47
2022/05/11 03:02:33;;;;;;;;;;;;;;;19.69;62.11;99193.75;2090966;28;19933;-49
2022/05/11 03:03:35;;;;;;;;;;;;;;;19.68;61.83;99185.91;2089349;28;19985;-50
2022/05/11 03:04:36;;;;;;;;;;;;;;;19.69;62.01;99187.56;2092455;28;19932;-47
2022/05/11 03:05:37;;;;;;;;;;;;;;;19.67;62.02;99182.38;2091875;28;19960;-47
2022/05/11 03:06:38;;;;;;;;;;;;;;;19.66;61.92;99180.69;2091653;28;20027;-50
2022/05/11 03:07:40;;;;;;;;;;;;;;;19.67;61.86;99189.59;2094050;28;19940;-47
2022/05/11 03:08:42;;;;;;;;;;;;;;;19.66;62.18;99182.56;2091451;28;20410;-49
2022/05/11 03:09:43;;;;;;;;;;;;;;;19.66;62.00;99186.09;2094752;28;19931;-48
2022/05/11 03:10:47;;;;;;;;;;;;;;;19.66;61.77;99191.47;2095124;28;20007;-47
2022/05/11 03:11:48;;;;;;;;;;;;;;;19.65;62.21;99192.47;2091938;28;19974;-47
2022/05/11 03:12:52;;;;;;;;;;;;;;;19.66;62.05;99187.94;2090778;28;19977;-47
2022/05/11 03:13:52;;;;;;;;;;;;;;;19.64;62.07;99186.28;2091711;28;19972;-49
2022/05/11 03:14:54;;;;;;;;;;;;;;;19.65;62.21;99192.47;2092131;28;19932;-48
2022/05/11 03:15:55;;;;;;;;;;;;;;;19.64;62.15;99190.81;2090732;28;19932;-47
2022/05/11 03:16:56;;;;;;;;;;;;;;;19.64;62.05;99190.81;2092255;28;20572;-47
2022/05/11 03:17:57;;;;;;;;;;;;;;;19.65;61.83;99192.47;2095361;28;19988;-49
2022/05/11 03:19:01;;;;;;;;;;;;;;;19.64;61.98;99196.22;2089576;28;19927;-49
2022/05/11 03:20:03;;;;;;;;;;;;;;;19.63;62.13;99191.84;2097734;28;19931;-47
2022/05/11 03:21:04;;;;;;;;;;;;;;;19.63;61.77;99195.34;2094509;28;19997;-47
2022/05/11 03:22:05;;;;;;;;;;;;;;;19.63;62.23;99194.53;2098883;28;20516;-47
2022/05/11 03:23:06;;;;;;;;;;;;;;;19.63;62.08;99191.84;2096654;28;19932;-49
2022/05/11 03:24:08;;;;;;;;;;;;;;;19.63;62.21;99192.66;2096433;28;19934;-51
2022/05/11 03:25:08;;;;;;;;;;;;;;;19.63;62.03;99191.84;2096619;28;21745;-47
2022/05/11 03:26:11;;;;;;;;;;;;;;;19.62;61.83;99195.56;2097090;28;19924;-49
2022/05/11 03:27:11;;;;;;;;;;;;;;;19.63;62.27;99197.22;2096817;28;19924;-49
2022/05/11 03:28:14;;;;;;;;;;;;;;;19.62;62.15;99193.69;2097889;28;19924;-47
2022/05/11 03:29:15;;;;;;;;;;;;;;;19.63;61.84;99199.91;2096659;28;20378;-48
2022/05/11 03:30:17;;;;;;;;;;;;;;;19.61;62.09;99194.75;2097296;28;20011;-47
2022/05/11 03:31:18;;;;;;;;;;;;;;;19.61;62.20;99194.75;2092903;28;20409;-49
2022/05/11 03:35:02;;;;;;;;;;;;;;;19.60;61.93;99201.13;2070856;28;20017;-49
2022/05/11 03:36:03;;;;;;;;;;;;;;;19.60;61.75;99190.38;2095618;28;19935;-47
2022/05/11 03:37:05;;;;;;;;;;;;;;;19.60;61.92;99192.22;2097171;28;19928;-47
2022/05/11 03:38:07;;;;;;;;;;;;;;;19.59;62.07;99195.97;2099440;28;20394;-47
2022/05/11 03:39:07;;;;;;;;;;;;;;;19.60;62.18;99198.44;2097877;28;20472;-47
2022/05/11 03:40:09;;;;;;;;;;;;;;;19.60;61.94;99201.13;2095948;28;19932;-47
2022/05/11 03:41:10;;;;;;;;;;;;;;;19.61;62.09;99207.34;2088653;28;19924;-47
2022/05/11 03:42:12;;;;;;;;;;;;;;;19.59;62.18;99195.97;2090590;28;20009;-49
2022/05/11 03:43:14;;;;;;;;;;;;;;;19.60;61.92;99197.63;2091717;28;20497;-47
2022/05/11 03:44:15;;;;;;;;;;;;;;;19.59;62.30;99201.34;2091048;28;19927;-48
2022/05/11 03:45:19;;;;;;;;;;;;;;;19.57;61.73;99196.13;2090293;28;20351;-47
2022/05/11 03:46:21;;;;;;;;;;;;;;;19.59;62.08;99193.28;2091464;28;19953;-50
2022/05/11 03:47:21;;;;;;;;;;;;;;;19.58;62.28;99203.19;2093267;28;20393;-47
2022/05/11 03:48:23;;;;;;;;;;;;;;;19.58;62.20;99196.97;2094030;28;19934;-48
2022/05/11 03:49:23;;;;;;;;;;;;;;;19.57;61.93;99195.31;2094139;28;20367;-47
2022/05/11 03:50:25;;;;;;;;;;;;;;;19.57;61.89;99195.31;2091714;28;19936;-50
2022/05/11 03:51:26;;;;;;;;;;;;;;;19.57;62.25;99196.13;2090302;28;19924;-47
2022/05/11 03:52:27;;;;;;;;;;;;;;;19.57;62.24;99195.31;2087909;28;20891;-50
2022/05/11 03:53:28;;;;;;;;;;;;;;;19.56;62.12;99190.97;2090001;28;19938;-46
2022/05/11 03:54:29;;;;;;;;;;;;;;;19.56;62.08;99199.88;2090137;28;19936;-48
2022/05/11 03:55:30;;;;;;;;;;;;;;;19.54;62.02;99196.53;2090715;28;19924;-48
2022/05/11 03:56:32;;;;;;;;;;;;;;;19.56;62.04;99193.66;2091700;28;19939;-47
2022/05/11 03:57:35;;;;;;;;;;;;;;;19.56;62.12;99190.97;2089494;28;19936;-48
2022/05/11 03:58:38;;;;;;;;;;;;;;;19.55;62.13;99197.38;2093611;28;19938;-50
2022/05/11 03:59:38;;;;;;;;;;;;;;;19.55;61.97;99187.44;2093081;28;19928;-47
2022/05/11 04:00:40;;;;;;;;;;;;;;;19.55;62.22;99187.44;2092530;28;19930;-50
2022/05/11 04:01:40;;;;;;;;;;;;;;;19.54;62.14;99188.47;2093259;28;20000;-47
2022/05/11 04:02:43;;;;;;;;;;;;;;;19.55;62.00;99190.13;2093523;28;19940;-48
2022/05/11 04:03:45;;;;;;;;;;;;;;;19.54;61.89;99191.16;2088891;28;19980;-46
2022/05/11 04:04:47;;;;;;;;;;;;;;;19.53;62.11;99186.81;2092736;27;20055;-49
2022/05/11 04:05:48;;;;;;;;;;;;;;;19.54;62.31;99190.34;2093916;28;20022;-49
2022/05/11 04:06:49;;;;;;;;;;;;;;;19.54;62.10;99188.47;2092316;28;19928;-48
2022/05/11 04:07:50;;;;;;;;;;;;;;;19.54;61.99;99185.78;2094634;28;19932;-50
2022/05/11 04:08:51;;;;;;;;;;;;;;;19.54;62.18;99187.63;2092398;28;19924;-49
2022/05/11 04:09:52;;;;;;;;;;;;;;;19.53;62.00;99189.50;2092354;28;20015;-47
2022/05/11 04:10:53;;;;;;;;;;;;;;;19.52;62.21;99182.44;2092145;28;19928;-47
2022/05/11 04:11:54;;;;;;;;;;;;;;;19.54;62.21;99191.16;2092733;28;19932;-50
2022/05/11 04:12:56;;;;;;;;;;;;;;;19.54;62.21;99188.47;2089294;28;20067;-50
2022/05/11 04:13:58;;;;;;;;;;;;;;;19.52;62.06;99193.19;2092397;28;19952;-48
2022/05/11 04:14:59;;;;;;;;;;;;;;;19.53;62.15;99188.66;2088161;28;19939;-50
2022/05/11 04:16:00;;;;;;;;;;;;;;;19.53;62.06;99196.72;2094258;28;21264;-51
2022/05/11 04:17:01;;;;;;;;;;;;;;;19.52;62.01;99201.28;2094340;28;19938;-50
2022/05/11 04:18:02;;;;;;;;;;;;;;;19.52;61.87;99198.59;2095693;28;20055;-49
2022/05/11 04:19:03;;;;;;;;;;;;;;;19.52;62.20;99197.75;2094593;28;19924;-51
2022/05/11 04:20:05;;;;;;;;;;;;;;;19.53;62.10;99194.88;2092838;28;21994;-50
2022/05/11 04:21:07;;;;;;;;;;;;;;;19.51;62.28;99199.63;2090264;28;20000;-52
2022/05/11 04:22:07;;;;;;;;;;;;;;;19.52;62.10;99201.28;2082339;28;20516;-50
2022/05/11 04:23:09;;;;;;;;;;;;;;;19.52;61.91;99200.44;2091793;28;19935;-50
2022/05/11 04:24:09;;;;;;;;;;;;;;;19.52;62.25;99198.59;2091785;28;19937;-48
2022/05/11 04:25:15;;;;;;;;;;;;;;;19.51;62.23;99198.78;2090231;28;20054;-47
2022/05/11 04:26:16;;;;;;;;;;;;;;;19.50;61.95;99200.66;2091470;28;19935;-50
2022/05/11 04:27:17;;;;;;;;;;;;;;;19.53;61.94;99199.41;2090042;28;19932;-51
2022/05/11 04:28:19;;;;;;;;;;;;;;;19.53;61.86;99196.72;2091566;28;19932;-50
2022/05/11 04:29:20;;;;;;;;;;;;;;;19.54;62.21;99198.41;2099374;28;19924;-48
2022/05/11 04:30:26;;;;;;;;;;;;;;;19.52;62.04;99195.06;2098341;28;19928;-48
2022/05/11 04:31:26;;;;;;;;;;;;;;;19.51;62.26;99196.09;2087761;28;20054;-48
2022/05/11 04:32:28;;;;;;;;;;;;;;;19.51;62.08;99196.09;2088520;28;19924;-49
2022/05/11 04:33:29;;;;;;;;;;;;;;;19.51;62.08;99207.69;2088170;28;19928;-49
2022/05/11 04:34:31;;;;;;;;;;;;;;;19.51;62.20;99206.88;2091404;28;19989;-49
2022/05/11 04:35:31;;;;;;;;;;;;;;;19.50;62.26;99206.03;2087633;28;19958;-48
2022/05/11 04:36:33;;;;;;;;;;;;;;;19.51;62.35;99206.88;2093634;28;19975;-48
2022/05/11 04:37:34;;;;;;;;;;;;;;;19.50;62.01;99210.56;2087951;28;19924;-51
2022/05/11 04:38:35;;;;;;;;;;;;;;;19.49;62.29;99211.59;2088277;28;19939;-50
2022/05/11 04:39:38;;;;;;;;;;;;;;;19.49;62.22;99207.06;2089737;28;19928;-47
2022/05/11 04:40:39;;;;;;;;;;;;;;;19.49;62.32;99214.28;2091376;28;19932;-49
2022/05/11 04:41:40;;;;;;;;;;;;;;;19.50;62.22;99210.56;2089310;28;20015;-50
2022/05/11 04:42:43;;;;;;;;;;;;;;;19.48;62.09;99209.94;2093859;28;19927;-50
2022/05/11 04:43:44;;;;;;;;;;;;;;;19.48;62.33;99218.03;2093657;28;19932;-51
2022/05/11 04:44:46;;;;;;;;;;;;;;;19.48;61.99;99213.47;2091126;28;19984;-48
2022/05/11 04:45:48;;;;;;;;;;;;;;;19.49;61.93;99215.13;2091284;28;19924;-51
2022/05/11 04:46:49;;;;;;;;;;;;;;;19.50;62.02;99218.63;2090076;28;19935;-51
2022/05/11 04:47:51;;;;;;;;;;;;;;;19.50;62.09;99214.13;2093931;28;19954;-51
2022/05/11 04:49:16;;;;;;;;;;;;;;;19.50;62.14;99211.44;2087933;28;19932;-48
2022/05/11 04:50:14;;;;;;;;;;;;;;;19.49;61.86;99220.50;2094852;28;19932;-47
2022/05/11 04:51:15;;;;;;;;;;;;;;;19.50;62.22;99222.19;2092039;28;20472;-49
2022/05/11 04:52:17;;;;;;;;;;;;;;;19.48;62.22;99223.41;2093976;28;19932;-49
2022/05/11 04:53:18;;;;;;;;;;;;;;;19.48;61.90;99226.91;2091963;28;20104;-49
2022/05/11 04:54:20;;;;;;;;;;;;;;;19.47;61.88;99222.53;2092983;28;19928;-50
2022/05/11 04:55:20;;;;;;;;;;;;;;;19.48;62.24;99223.41;2093642;28;19977;-48
2022/05/11 04:56:22;;;;;;;;;;;;;;;19.49;62.29;99230.44;2094124;28;22239;-50
2022/05/11 04:57:22;;;;;;;;;;;;;;;19.47;62.26;99230.63;2092695;28;20499;-53
2022/05/11 04:58:24;;;;;;;;;;;;;;;19.46;62.39;99225.44;2091061;28;20046;-52
2022/05/11 04:59:25;;;;;;;;;;;;;;;19.46;62.29;99223.59;2090549;28;19924;-49
2022/05/11 05:00:27;;;;;;;;;;;;;;;19.46;62.31;99228.13;2095098;28;20063;-50
2022/05/11 05:01:28;;;;;;;;;;;;;;;19.47;62.30;99227.94;2091277;28;19927;-48
2022/05/11 05:02:29;;;;;;;;;;;;;;;19.47;62.29;99229.78;2094250;28;19932;-47
2022/05/11 05:03:30;;;;;;;;;;;;;;;19.47;61.97;99224.41;2089820;28;19939;-49
2022/05/11 05:04:32;;;;;;;;;;;;;;;19.47;62.06;99232.47;2092196;28;19924;-47
2022/05/11 05:05:34;;;;;;;;;;;;;;;19.46;62.08;99231.66;2090443;28;19939;-51
2022/05/11 05:06:34;;;;;;;;;;;;;;;19.46;62.10;99231.66;2091290;28;20432;-48
2022/05/11 05:07:37;;;;;;;;;;;;;;;19.46;62.33;99237.03;2092067;28;19939;-52
2022/05/11 05:08:38;;;;;;;;;;;;;;;19.47;62.05;99235.16;2091783;28;19928;-47
2022/05/11 05:09:39;;;;;;;;;;;;;;;19.46;61.97;99237.03;2091904;28;20559;-54
2022/05/11 05:10:41;;;;;;;;;;;;;;;19.45;62.21;99235.38;2092077;28;19948;-50
2022/05/11 05:11:41;;;;;;;;;;;;;;;19.45;61.94;99237.25;2091578;28;20010;-49
2022/05/11 05:12:43;;;;;;;;;;;;;;;19.43;62.10;99232.88;2091890;28;20339;-48
2022/05/11 05:13:44;;;;;;;;;;;;;;;19.43;61.95;99232.88;2094864;28;19928;-48
2022/05/11 05:14:45;;;;;;;;;;;;;;;19.45;61.98;99239.94;2095118;28;19932;-50
2022/05/11 05:15:55;;;;;;;;;;;;;;;19.43;62.27;99238.25;2091871;28;20678;-52
2022/05/11 05:16:59;;;;;;;;;;;;;;;19.45;61.85;99242.63;2088744;28;19939;-47
2022/05/11 05:18:01;;;;;;;;;;;;;;;19.45;62.22;99250.69;2091114;28;19932;-50
2022/05/11 05:19:02;;;;;;;;;;;;;;;19.45;62.35;99254.22;2087460;28;20456;-48
2022/05/11 05:20:05;;;;;;;;;;;;;;;19.43;61.91;99254.41;2089334;28;19981;-50
2022/05/11 05:21:06;;;;;;;;;;;;;;;19.43;62.17;99251.69;2096160;28;20449;-50
2022/05/11 05:22:07;;;;;;;;;;;;;;;19.45;61.90;99256.06;2090083;28;19932;-48
2022/05/11 05:23:08;;;;;;;;;;;;;;;19.46;62.10;99260.41;2088113;28;19935;-49
2022/05/11 05:24:10;;;;;;;;;;;;;;;19.45;62.12;99251.53;2098282;28;19928;-47
2022/05/11 05:25:11;;;;;;;;;;;;;;;19.45;62.29;99258.78;2095317;28;19939;-50
2022/05/11 05:26:12;;;;;;;;;;;;;;;19.45;62.27;99256.91;2099487;28;19928;-48
2022/05/11 05:27:14;;;;;;;;;;;;;;;19.45;61.93;99261.47;2087167;28;20011;-51
2022/05/11 05:31:06;;;;;;;;;;;;;;;19.43;61.92;99264.34;2087558;28;20532;-50
2022/05/11 05:32:08;;;;;;;;;;;;;;;19.43;61.86;99258.94;2087603;28;19932;-47
2022/05/11 05:33:08;;;;;;;;;;;;;;;19.43;62.26;99264.34;2090530;28;19954;-49
2022/05/11 05:34:10;;;;;;;;;;;;;;;19.44;62.15;99263.28;2092455;28;19935;-51